createdAt,value
2023-01-13T02:04:58.105Z,5.80
2023-01-13T02:49:59.286Z,5.70
2023-01-13T02:55:06.785Z,5.70
2023-01-13T03:00:12.439Z,5.70
2023-01-13T03:05:16.988Z,5.70
2023-01-13T03:10:27.557Z,5.70
2023-01-13T03:16:01.132Z,5.80
2023-01-13T03:21:15.215Z,5.70
2023-01-13T03:26:59.009Z,5.80
2023-01-13T03:32:11.924Z,5.80
2023-01-13T03:37:17.127Z,5.80
2023-01-13T03:42:25.113Z,5.80
2023-01-13T03:47:33.041Z,5.80
2023-01-13T03:52:51.922Z,5.80
2023-01-13T03:57:57.917Z,5.90
2023-01-13T04:03:11.732Z,5.90
2023-01-13T04:08:26.911Z,5.80
2023-01-13T04:13:32.333Z,5.90
2023-01-13T04:18:37.887Z,5.80
2023-01-13T04:23:39.769Z,5.90
2023-01-13T04:28:41.440Z,5.90
2023-01-13T04:33:43.221Z,5.90
2023-01-13T04:38:45.145Z,5.90
2023-01-13T04:43:46.832Z,6.00
2023-01-13T04:48:48.510Z,6.00
2023-01-13T04:53:52.262Z,6.00
2023-01-13T04:58:53.986Z,5.90
2023-01-13T05:03:55.997Z,5.90
2023-01-13T05:08:57.987Z,5.90
2023-01-13T05:14:18.249Z,5.90
2023-01-13T05:19:20.037Z,5.90
2023-01-13T05:24:40.199Z,5.90
2023-01-13T05:29:42.005Z,5.90
2023-01-13T05:34:43.751Z,5.90
2023-01-13T05:40:04.066Z,5.90
2023-01-13T05:45:06.277Z,5.80
2023-01-13T05:50:08.706Z,5.90
2023-01-13T05:55:11.423Z,5.80
2023-01-13T06:00:13.712Z,5.80
2023-01-13T06:05:15.956Z,5.80
2023-01-13T06:10:18.043Z,5.80
2023-01-13T06:15:20.267Z,5.80
2023-01-13T06:20:21.937Z,5.80
2023-01-13T06:25:58.584Z,5.80
2023-01-13T06:31:03.598Z,5.80
2023-01-13T06:36:22.092Z,5.80
2023-01-13T06:41:44.270Z,5.80
2023-01-13T06:46:46.732Z,5.80
2023-01-13T06:51:48.689Z,5.90
2023-01-13T06:56:50.479Z,5.90
2023-01-13T07:01:52.470Z,5.90
2023-01-13T07:06:55.348Z,5.90
2023-01-13T07:11:57.373Z,5.80
2023-01-13T07:16:59.125Z,5.70
2023-01-13T07:22:00.935Z,5.70
2023-01-13T07:27:02.672Z,5.70
2023-01-13T07:32:05.570Z,5.70
2023-01-13T07:37:07.365Z,5.70
2023-01-13T07:42:28.261Z,5.70
2023-01-13T07:47:29.956Z,5.80
2023-01-13T07:52:31.817Z,5.70
2023-01-13T07:57:33.681Z,5.70
2023-01-13T08:02:35.644Z,5.80
2023-01-13T08:07:37.376Z,5.80
2023-01-13T08:12:57.805Z,5.80
2023-01-13T08:17:59.704Z,5.80
2023-01-13T08:23:01.627Z,5.80
2023-01-13T08:28:04.150Z,5.70
2023-01-13T08:33:10.831Z,5.70
2023-01-13T08:38:12.682Z,5.70
2023-01-13T08:43:14.592Z,5.70
2023-01-13T08:48:16.273Z,5.70
2023-01-13T08:53:18.063Z,5.70
2023-01-13T08:58:19.825Z,5.60
2023-01-13T09:03:21.606Z,5.60
2023-01-13T09:08:23.389Z,5.60
2023-01-13T09:13:25.460Z,5.50
2023-01-13T09:18:27.178Z,5.50
2023-01-13T09:23:28.907Z,5.50
2023-01-13T09:28:30.649Z,5.50
2023-01-13T09:33:51.258Z,5.40
2023-01-13T09:38:53.026Z,5.40
2023-01-13T09:43:59.561Z,5.40
2023-01-13T09:49:03.642Z,5.30
2023-01-13T09:54:32.182Z,5.30
2023-01-13T09:59:36.531Z,5.30
2023-01-13T10:04:38.412Z,5.30
2023-01-13T10:09:52.955Z,5.20
2023-01-13T10:14:56.151Z,5.30
2023-01-13T10:20:16.870Z,5.20
2023-01-13T10:25:33.692Z,5.20
2023-01-13T10:30:41.413Z,5.20
2023-01-13T10:35:55.565Z,5.20
2023-01-13T10:40:59.488Z,5.20
2023-01-13T10:46:01.193Z,5.20
2023-01-13T10:51:37.993Z,5.20
2023-01-13T10:56:44.993Z,5.20
2023-01-13T11:02:26.412Z,5.20
2023-01-13T11:07:35.871Z,5.20
2023-01-13T11:13:03.965Z,5.20
2023-01-13T11:18:25.070Z,5.20
2023-01-13T11:23:37.062Z,5.20
2023-01-13T11:28:44.047Z,5.20
2023-01-13T11:33:50.272Z,5.20
2023-01-13T11:38:58.689Z,5.10
2023-01-13T11:44:21.358Z,5.10
2023-01-13T11:49:29.498Z,5.10
2023-01-13T11:54:52.149Z,5.10
2023-01-13T12:00:22.210Z,5.10
2023-01-13T12:05:36.228Z,5.10
2023-01-13T12:11:19.282Z,5.10
2023-01-13T12:16:30.924Z,5.20
2023-01-13T12:21:53.167Z,5.20
2023-01-13T12:26:58.923Z,5.10
2023-01-13T12:32:04.835Z,5.20
2023-01-13T12:37:38.887Z,5.20
2023-01-13T12:43:13.429Z,5.20
2023-01-13T12:48:46.276Z,5.30
2023-01-13T12:53:48.163Z,5.20
2023-01-13T12:58:50.154Z,5.30
2023-01-13T13:04:10.523Z,5.30
2023-01-13T13:09:32.278Z,5.30
2023-01-13T13:14:39.963Z,5.30
2023-01-13T13:19:42.321Z,5.40
2023-01-13T13:25:04.084Z,5.40
2023-01-13T13:30:18.019Z,5.40
2023-01-13T13:35:28.786Z,5.40
2023-01-13T13:40:58.917Z,5.40
2023-01-13T13:46:19.415Z,5.40
2023-01-13T13:51:30.869Z,5.40
2023-01-13T13:56:38.356Z,5.50
2023-01-13T14:01:43.335Z,5.50
2023-01-13T14:07:01.763Z,5.50
2023-01-13T14:12:08.820Z,5.50
2023-01-13T14:17:28.500Z,5.50
2023-01-13T14:22:30.287Z,5.50
2023-01-13T14:27:32.596Z,5.60
2023-01-13T14:32:36.804Z,5.60
2023-01-13T14:37:43.002Z,5.60
2023-01-13T14:42:44.793Z,5.70
2023-01-13T14:47:52.574Z,5.60
2023-01-13T14:52:56.965Z,5.70
2023-01-13T14:58:37.562Z,5.70
2023-01-13T15:03:42.690Z,5.80
2023-01-13T15:08:44.549Z,5.80
2023-01-13T15:13:53.474Z,5.80
2023-01-13T15:18:56.322Z,5.80
2023-01-13T15:23:58.084Z,5.80
2023-01-13T15:29:03.621Z,5.90
2023-01-13T15:34:05.302Z,5.90
2023-01-13T15:39:10.115Z,5.90
2023-01-13T15:44:39.001Z,5.90
2023-01-13T15:49:44.095Z,5.90
2023-01-13T15:54:45.807Z,5.80
2023-01-13T15:59:47.736Z,5.90
2023-01-13T16:04:51.370Z,5.90
2023-01-13T16:09:53.427Z,5.90
2023-01-13T16:14:55.462Z,6.00
2023-01-13T16:19:58.820Z,6.00
2023-01-13T16:25:00.515Z,6.00
2023-01-13T16:30:02.489Z,6.00
2023-01-13T16:35:04.454Z,6.10
2023-01-13T16:40:06.745Z,6.00
2023-01-13T16:45:09.638Z,6.00
2023-01-13T16:50:42.109Z,6.10
2023-01-13T16:55:44.329Z,6.10
2023-01-13T17:00:47.416Z,6.10
2023-01-13T17:05:49.173Z,6.10
2023-01-13T17:10:50.941Z,6.10
2023-01-13T17:15:52.712Z,6.10
2023-01-13T17:20:54.467Z,6.10
2023-01-13T17:25:56.177Z,6.10
2023-01-13T17:30:57.999Z,6.10
2023-01-13T17:36:01.777Z,6.10
2023-01-13T17:41:05.465Z,6.10
2023-01-13T17:46:08.856Z,6.10
2023-01-13T17:51:13.248Z,6.20
2023-01-13T17:56:15.397Z,6.20
2023-01-13T18:01:19.126Z,6.20
2023-01-13T18:06:23.638Z,6.20
2023-01-13T18:11:25.468Z,6.30
2023-01-13T18:16:30.286Z,6.30
2023-01-13T18:21:51.124Z,6.30
2023-01-13T18:27:11.735Z,6.30
2023-01-13T18:32:14.601Z,6.30
2023-01-13T18:37:17.311Z,6.30
2023-01-13T18:42:37.448Z,6.30
2023-01-13T18:47:41.983Z,6.30
2023-01-13T18:52:44.262Z,6.30
2023-01-13T18:57:49.056Z,6.30
2023-01-13T19:08:07.775Z,6.30
2023-01-13T19:13:09.527Z,6.30
2023-01-13T19:18:13.478Z,6.30
2023-01-13T19:23:15.404Z,6.30
2023-01-13T19:28:17.234Z,6.30
2023-01-13T19:33:19.201Z,6.20
2023-01-13T19:38:21.692Z,6.20
2023-01-13T19:43:42.867Z,6.20
2023-01-13T19:48:44.617Z,6.20
2023-01-13T19:53:46.872Z,6.20
2023-01-13T19:58:50.747Z,6.20
2023-01-13T20:03:52.639Z,6.20
2023-01-13T20:08:54.434Z,6.20
2023-01-13T20:13:56.403Z,6.20
2023-01-13T20:18:58.182Z,6.20
2023-01-13T20:23:59.927Z,6.20
2023-01-13T20:29:01.664Z,6.20
2023-01-13T20:34:03.676Z,6.20
2023-01-13T20:39:07.119Z,6.20
2023-01-13T20:44:11.470Z,6.30
2023-01-13T20:49:15.029Z,6.20
2023-01-13T20:54:17.608Z,6.20
2023-01-13T20:59:19.561Z,6.30
2023-01-13T21:04:21.336Z,6.30
2023-01-13T21:09:24.007Z,6.20
2023-01-13T21:14:45.799Z,6.30
2023-01-13T21:19:47.555Z,6.20
2023-01-13T21:24:49.302Z,6.30
2023-01-13T21:29:51.088Z,6.30
2023-01-13T21:34:52.836Z,6.30
2023-01-13T21:39:54.641Z,6.30
2023-01-13T21:45:14.871Z,6.40
2023-01-13T21:50:19.821Z,6.40
2023-01-13T21:55:25.304Z,6.40
2023-01-13T22:00:30.901Z,6.40
2023-01-13T22:05:32.816Z,6.40
2023-01-13T22:10:35.137Z,6.40
2023-01-13T22:15:37.019Z,6.50
2023-01-13T22:20:38.898Z,6.40
2023-01-13T22:25:40.694Z,6.40
2023-01-13T22:30:42.539Z,6.40
2023-01-13T22:35:44.453Z,6.40
2023-01-13T22:40:46.167Z,6.50
2023-01-13T22:46:00.345Z,6.50
2023-01-13T22:51:08.909Z,6.50
2023-01-13T22:56:17.220Z,6.60
2023-01-13T23:01:18.971Z,6.50
2023-01-13T23:06:22.920Z,6.50
2023-01-13T23:11:27.460Z,6.50
2023-01-13T23:16:31.133Z,6.50
2023-01-13T23:21:36.269Z,6.50
2023-01-13T23:26:38.151Z,6.50
2023-01-13T23:31:40.305Z,6.50
2023-01-13T23:36:43.805Z,6.50
2023-01-13T23:41:45.526Z,6.50
2023-01-13T23:46:47.269Z,6.50
2023-01-13T23:51:52.279Z,6.50
2023-01-13T23:56:54.216Z,6.40
